createdAt,value
2019-05-05T00:03:44.518Z,11
2019-05-05T00:08:46.130Z,12
2019-05-05T00:13:48.938Z,10
2019-05-05T00:18:51.149Z,11
2019-05-05T00:23:55.304Z,10
2019-05-05T00:28:55.866Z,12
2019-05-05T00:33:58.359Z,13
2019-05-05T00:39:00.786Z,12
2019-05-05T00:44:04.718Z,13
2019-05-05T00:49:05.736Z,11
2019-05-05T00:54:08.210Z,10
2019-05-05T00:59:10.695Z,10
2019-05-05T01:04:14.466Z,12
2019-05-05T01:09:15.651Z,11
2019-05-05T01:14:18.052Z,12
2019-05-05T01:19:20.537Z,14
2019-05-05T01:24:24.851Z,13
2019-05-05T01:29:25.476Z,14
2019-05-05T01:34:27.930Z,15
2019-05-05T01:39:30.436Z,15
2019-05-05T01:44:35.025Z,16
2019-05-05T01:49:35.375Z,17
2019-05-05T01:54:37.780Z,17
2019-05-05T01:59:40.325Z,18
2019-05-05T02:04:44.553Z,18
2019-05-05T02:09:45.174Z,18
2019-05-05T02:14:47.642Z,16
2019-05-05T02:19:50.066Z,18
2019-05-05T02:24:54.833Z,19
2019-05-05T02:29:55.094Z,21
2019-05-05T02:34:57.481Z,20
2019-05-05T02:40:04.020Z,20
2019-05-05T02:45:05.344Z,21
2019-05-05T02:50:05.297Z,20
2019-05-05T02:55:07.403Z,23
2019-05-05T03:00:10.003Z,24
2019-05-05T03:05:14.070Z,24
2019-05-05T03:10:14.713Z,25
2019-05-05T03:15:17.614Z,24
2019-05-05T03:20:19.670Z,24
2019-05-05T03:25:23.961Z,27
2019-05-05T03:30:25.982Z,22
2019-05-05T03:35:27.078Z,23
2019-05-05T03:40:29.693Z,24
2019-05-05T03:45:33.977Z,23
2019-05-05T03:50:34.509Z,22
2019-05-05T03:55:38.202Z,22
2019-05-05T04:00:39.427Z,25
2019-05-05T04:05:41.852Z,23
2019-05-05T04:10:44.345Z,24
2019-05-05T04:15:46.923Z,22
2019-05-05T04:20:49.293Z,24
2019-05-05T04:25:51.881Z,23
2019-05-05T04:30:54.183Z,20
2019-05-05T04:35:56.636Z,22
2019-05-05T04:40:59.099Z,19
2019-05-05T04:46:01.640Z,21
2019-05-05T04:51:04.737Z,20
2019-05-05T04:56:06.596Z,21
2019-05-05T05:01:08.961Z,20
2019-05-05T05:06:11.413Z,19
2019-05-05T05:11:14.217Z,20
2019-05-05T05:16:16.699Z,17
2019-05-05T05:21:18.988Z,16
2019-05-05T05:26:21.752Z,17
2019-05-05T05:31:24.439Z,17
2019-05-05T05:36:26.228Z,17
2019-05-05T05:41:28.840Z,16
2019-05-05T05:46:32.956Z,17
2019-05-05T05:51:34.195Z,16
2019-05-05T05:56:36.074Z,17
2019-05-05T06:01:38.526Z,14
2019-05-05T06:06:40.982Z,16
2019-05-05T06:11:43.700Z,14
2019-05-05T06:16:46.402Z,14
2019-05-05T06:21:48.454Z,14
2019-05-05T06:26:50.815Z,13
2019-05-05T06:31:53.739Z,14
2019-05-05T06:36:55.772Z,13
2019-05-05T06:41:58.166Z,13
2019-05-05T06:47:00.706Z,13
2019-05-05T06:52:04.017Z,14
2019-05-05T06:57:05.552Z,12
2019-05-05T07:02:08.339Z,11
2019-05-05T07:07:10.566Z,10
2019-05-05T07:12:13.777Z,11
2019-05-05T07:17:15.754Z,9
2019-05-05T07:22:17.930Z,9
2019-05-05T07:27:20.295Z,8
2019-05-05T07:32:24.482Z,9
2019-05-05T07:37:25.218Z,9
2019-05-05T07:42:27.712Z,8
2019-05-05T07:47:30.161Z,9
2019-05-05T07:52:34.352Z,12
2019-05-05T07:57:35.057Z,9
2019-05-05T08:02:37.613Z,10
2019-05-05T08:07:40.066Z,6
2019-05-05T08:12:43.590Z,6
2019-05-05T08:17:44.954Z,4
2019-05-05T08:22:47.331Z,6
2019-05-05T08:27:49.802Z,5
2019-05-05T08:32:53.888Z,5
2019-05-05T08:37:54.939Z,5
2019-05-05T08:42:57.194Z,5
2019-05-05T08:47:59.622Z,5
2019-05-05T08:53:04.194Z,4
2019-05-05T08:58:04.763Z,3
2019-05-05T09:03:07.002Z,4
2019-05-05T09:08:09.623Z,2
2019-05-05T09:13:14.253Z,3
2019-05-05T09:18:14.399Z,3
2019-05-05T09:23:16.883Z,3
2019-05-05T09:28:19.381Z,3
2019-05-05T09:33:21.790Z,3
2019-05-05T09:38:24.265Z,3
2019-05-05T09:43:26.822Z,3
2019-05-05T09:48:29.154Z,3
2019-05-05T09:53:34.243Z,6
2019-05-05T09:58:34.712Z,2
2019-05-05T10:03:36.841Z,2
2019-05-05T10:08:38.955Z,2
2019-05-05T10:18:44.785Z,2
2019-05-05T10:23:46.333Z,2
2019-05-05T10:28:49.049Z,1
2019-05-05T10:33:51.385Z,1
2019-05-05T10:38:53.887Z,2
2019-05-05T10:43:56.163Z,2
2019-05-05T10:48:59.793Z,1
2019-05-05T10:54:01.115Z,2
2019-05-05T10:59:03.967Z,2
2019-05-05T11:04:06.047Z,2
2019-05-05T11:09:08.880Z,2
2019-05-05T11:14:10.905Z,2
2019-05-05T11:19:13.770Z,2
2019-05-05T11:24:15.849Z,2
2019-05-05T11:29:18.285Z,3
2019-05-05T11:34:20.749Z,2
2019-05-05T11:39:23.633Z,2
2019-05-05T11:44:25.681Z,2
2019-05-05T11:49:28.171Z,2
2019-05-05T11:54:30.602Z,2
2019-05-05T11:59:33.071Z,2
2019-05-05T12:04:35.518Z,2
2019-05-05T12:09:38.075Z,4
2019-05-05T12:14:40.419Z,2
2019-05-05T12:19:43.572Z,2
2019-05-05T12:24:45.348Z,2
2019-05-05T12:29:47.897Z,2
2019-05-05T12:34:50.297Z,2
2019-05-05T12:39:54.518Z,2
2019-05-05T12:44:55.142Z,2
2019-05-05T12:49:57.743Z,2
2019-05-05T12:55:01.972Z,2
2019-05-05T13:00:04.161Z,2
2019-05-05T13:05:04.993Z,2
2019-05-05T13:10:07.465Z,2
2019-05-05T13:15:10.321Z,2
2019-05-05T13:20:14.020Z,2
2019-05-05T13:25:15.012Z,2
2019-05-05T13:30:17.617Z,2
2019-05-05T13:35:19.813Z,2
2019-05-05T13:40:24.002Z,2
2019-05-05T13:45:24.997Z,1
2019-05-05T13:50:27.106Z,2
2019-05-05T13:55:29.793Z,2
2019-05-05T14:00:33.766Z,2
2019-05-05T14:05:34.548Z,2
2019-05-05T14:10:37.087Z,3
2019-05-05T14:15:39.788Z,3
2019-05-05T14:20:43.541Z,2
2019-05-05T14:25:45.740Z,2
2019-05-05T14:30:46.787Z,3
2019-05-05T14:35:49.390Z,2
2019-05-05T14:40:53.665Z,2
2019-05-05T14:45:54.657Z,1
2019-05-05T14:50:56.699Z,2
2019-05-05T14:55:59.269Z,2
2019-05-05T15:01:01.621Z,3
2019-05-05T15:06:04.068Z,2
2019-05-05T15:11:06.503Z,3
2019-05-05T15:16:10.165Z,3
2019-05-05T15:21:11.610Z,3
2019-05-05T15:31:17.817Z,3
2019-05-05T15:36:18.844Z,3
2019-05-05T15:41:21.202Z,2
2019-05-05T15:46:24.530Z,2
2019-05-05T15:51:26.219Z,2
2019-05-05T15:56:29.786Z,3
2019-05-05T16:01:31.056Z,3
2019-05-05T16:06:34.440Z,3
2019-05-05T16:11:35.927Z,4
2019-05-05T16:16:38.368Z,3
2019-05-05T16:21:40.840Z,3
2019-05-05T16:26:43.342Z,3
2019-05-05T16:31:45.945Z,3
2019-05-05T16:36:48.223Z,3
2019-05-05T16:41:50.685Z,3
2019-05-05T16:46:53.935Z,3
2019-05-05T16:51:56.216Z,3
2019-05-05T16:56:58.073Z,3
2019-05-05T17:02:01.297Z,3
2019-05-05T17:07:03.995Z,3
2019-05-05T17:12:05.471Z,3
2019-05-05T17:17:07.903Z,3
2019-05-05T17:22:10.364Z,3
2019-05-05T17:27:13.900Z,3
2019-05-05T17:32:15.278Z,3
2019-05-05T17:37:17.693Z,3
2019-05-05T17:42:20.168Z,3
2019-05-05T17:47:24.428Z,3
2019-05-05T17:52:25.146Z,2
2019-05-05T17:57:27.704Z,2
2019-05-05T18:02:30.037Z,2
2019-05-05T18:07:34.457Z,2
2019-05-05T18:12:34.919Z,2
2019-05-05T18:17:37.466Z,3
2019-05-05T18:22:39.903Z,2
2019-05-05T18:27:42.447Z,2
2019-05-05T18:32:44.816Z,3
2019-05-05T18:37:47.326Z,3
2019-05-05T18:42:49.930Z,3
2019-05-05T18:47:53.758Z,3
2019-05-05T18:52:54.559Z,3
2019-05-05T18:57:57.263Z,3
2019-05-05T19:02:59.695Z,3
2019-05-05T19:08:02.220Z,4
2019-05-05T19:13:04.443Z,3
2019-05-05T19:18:06.996Z,3
2019-05-05T19:23:09.326Z,4
2019-05-05T19:28:11.786Z,4
2019-05-05T19:33:15.466Z,5
2019-05-05T19:38:16.706Z,5
2019-05-05T19:43:19.188Z,5
2019-05-05T19:48:21.788Z,4
2019-05-05T19:53:24.673Z,5
2019-05-05T19:58:26.610Z,5
2019-05-05T20:03:29.380Z,5
2019-05-05T20:08:40.196Z,6
2019-05-05T20:13:33.966Z,5
